»·PEaware :: N509GL 1S5-KYKM

N509GL :: 1S5-KYKM

FLIGHT INFORMATION

Flight Status: Arrived
Operator: Privately registered:
United States
More flights under this callsign
Pilot: Anonymous 32956 (32956)
Aircraft: CESSNA 172 SKYHAWK
(C172)
More flights by this aircraft type
Origin: 1S5 Sunnyside Mun
United States
Destination: KYKM Yakima Air Term/Mcallister
United States
More flights between these airports :: More routes between these airports
Route:
File this flight plan on PilotEdge
Remarks:
Altitude:
(Current/Filed)
5,000ft
Speed:
(Current/Filed)
110kts
Departed: 15-Jan-21 06:41 PM
Arrived: 15-Jan-21 07:27 PM
Distance/Time
Traveled:
28nm/0:46
Distance/Time
To Go:
Arrived

Flight Plot

Page will automatically refresh every two minutes.

Flight plan parsing failed; only flown route is shown


Map Options




Map Legend


Flown Route
Filed Route
Departure Airport
Arrival Airport
Navaid (VOR, NDB)
Fix

Horizontal Profiles

Position Reports

Time Latitude Longitude Heading Altitude Ground
Speed
15-Jan-21 18:27 46.326004 -119.967930 359 768ft 0kts
15-Jan-21 18:28 46.326004 -119.967930 359 768ft 0kts
15-Jan-21 18:29 46.326004 -119.967930 359 768ft 0kts
15-Jan-21 18:30 46.326004 -119.967930 359 768ft 0kts
15-Jan-21 18:31 46.326004 -119.967930 359 768ft 0kts
15-Jan-21 18:32 46.326004 -119.967930 359 768ft 0kts
15-Jan-21 18:33 46.326004 -119.967930 359 768ft 0kts
15-Jan-21 18:34 46.326053 -119.967926 13 768ft 0kts
15-Jan-21 18:35 46.326464 -119.967128 37 770ft 10kts
15-Jan-21 18:36 46.326696 -119.966820 70 771ft 8kts
15-Jan-21 18:37 46.326728 -119.964553 71 771ft 0kts
15-Jan-21 18:38 46.326796 -119.964384 35 771ft 5kts
15-Jan-21 18:39 46.327124 -119.964981 268 771ft 0kts
15-Jan-21 18:40 46.327144 -119.967490 269 771ft 56kts
15-Jan-21 18:41 46.327425 -119.979055 294 1159ft 67kts
15-Jan-21 18:42 46.332716 -119.988246 309 1541ft 72kts
15-Jan-21 18:43 46.338383 -120.000195 303 1552ft 113kts
15-Jan-21 18:44 46.346119 -120.017323 303 1560ft 129kts
15-Jan-21 18:45 46.353391 -120.033400 303 1558ft 133kts
15-Jan-21 18:46 46.353391 -120.033400 303 1558ft 133kts
15-Jan-21 18:47 46.353391 -120.033400 303 1558ft 133kts
15-Jan-21 18:48 46.353391 -120.033400 303 1558ft 133kts
15-Jan-21 18:49 46.353391 -120.033400 303 1558ft 133kts
15-Jan-21 18:50 46.353391 -120.033400 303 1558ft 133kts
15-Jan-21 18:51 46.353391 -120.033400 303 1558ft 133kts
15-Jan-21 18:52 46.353391 -120.033400 303 1558ft 133kts
15-Jan-21 18:53 46.360029 -120.048015 303 1557ft 134kts
15-Jan-21 18:54 46.368328 -120.066316 303 1557ft 134kts
15-Jan-21 18:55 46.376591 -120.084566 303 1557ft 134kts
15-Jan-21 18:56 46.384812 -120.102754 303 1557ft 134kts
15-Jan-21 18:57 46.392852 -120.120574 303 1557ft 134kts
15-Jan-21 18:58 46.400884 -120.138405 303 1557ft 134kts
15-Jan-21 18:59 46.408634 -120.155639 303 1556ft 134kts
15-Jan-21 19:00 46.416425 -120.172995 303 1557ft 134kts
15-Jan-21 19:01 46.424125 -120.190174 303 1556ft 134kts
15-Jan-21 19:02 46.431815 -120.207359 303 1556ft 134kts
15-Jan-21 19:03 46.439735 -120.225086 303 1557ft 134kts
15-Jan-21 19:04 46.447443 -120.242370 303 1556ft 134kts
15-Jan-21 19:05 46.455075 -120.259510 303 1556ft 134kts
15-Jan-21 19:06 46.462597 -120.276431 303 1556ft 134kts
15-Jan-21 19:07 46.470027 -120.293172 303 1557ft 134kts
15-Jan-21 19:08 46.477401 -120.309812 303 1557ft 134kts
15-Jan-21 19:09 46.481972 -120.320151 303 1737ft 122kts
15-Jan-21 19:10 46.489074 -120.335904 306 1732ft 126kts
15-Jan-21 19:11 46.495382 -120.348636 306 2447ft 86kts
15-Jan-21 19:12 46.501329 -120.359925 306 2813ft 90kts
15-Jan-21 19:14 46.505641 -120.367707 314 2781ft 111kts
15-Jan-21 19:15 46.512399 -120.381782 300 3015ft 114kts
15-Jan-21 19:16 46.518986 -120.396225 310 3338ft 105kts
15-Jan-21 19:17 46.526261 -120.409710 309 3179ft 124kts
15-Jan-21 19:18 46.531942 -120.420093 309 3092ft 116kts
15-Jan-21 19:19 46.538505 -120.433360 302 2923ft 117kts
15-Jan-21 19:20 46.543908 -120.449309 297 2596ft 123kts
15-Jan-21 19:21 46.548952 -120.465826 293 2122ft 128kts
15-Jan-21 19:22 46.552911 -120.480786 291 1981ft 106kts
15-Jan-21 19:23 46.556602 -120.495380 290 1682ft 108kts
15-Jan-21 19:24 46.560314 -120.510168 290 1424ft 98kts
15-Jan-21 19:25 46.563626 -120.523621 289 1182ft 91kts
15-Jan-21 19:26 46.566732 -120.536293 275 1056ft 63kts
15-Jan-21 19:27 46.568261 -120.542147 318 1064ft 19kts
15-Jan-21 19:28 46.569214 -120.541318 111 1065ft 9kts
15-Jan-21 19:29 46.569242 -120.540588 66 1065ft 6kts
15-Jan-21 19:30 46.569544 -120.539988 359 1063ft 4kts
15-Jan-21 19:31 46.569615 -120.540247 236 1064ft 4kts
15-Jan-21 19:32 46.569437 -120.540472 232 1064ft 0kts

Navigation Log

Ident Type
Flight plan parsing failed, navigation log unavailable